sensor_id;sensor_type;location;lat;lon;timestamp;pressure;altitude;pressure_sealevel;temperature;humidity
75699;BME280;64313;51.018;13.742;2023-02-01T00:01:25;99540.09;;;4.45;76.37
75699;BME280;64313;51.018;13.742;2023-02-01T00:03:50;99521.72;;;4.43;76.07
75699;BME280;64313;51.018;13.742;2023-02-01T00:06:16;99534.94;;;4.43;76.05
75699;BME280;64313;51.018;13.742;2023-02-01T00:08:41;99533.31;;;4.42;75.89
75699;BME280;64313;51.018;13.742;2023-02-01T00:11:09;99536.97;;;4.41;75.75
75699;BME280;64313;51.018;13.742;2023-02-01T00:13:37;99541.59;;;4.39;75.57
75699;BME280;64313;51.018;13.742;2023-02-01T00:16:12;99543.56;;;4.37;75.34
75699;BME280;64313;51.018;13.742;2023-02-01T00:18:38;99544.22;;;4.39;75.69
75699;BME280;64313;51.018;13.742;2023-02-01T00:21:04;99551.16;;;4.40;76.11
75699;BME280;64313;51.018;13.742;2023-02-01T00:23:32;99546.88;;;4.39;76.10
75699;BME280;64313;51.018;13.742;2023-02-01T00:26:04;99548.84;;;4.37;75.91
75699;BME280;64313;51.018;13.742;2023-02-01T00:28:30;99555.78;;;4.38;76.00
75699;BME280;64313;51.018;13.742;2023-02-01T00:31:00;99560.59;;;4.43;75.77
75699;BME280;64313;51.018;13.742;2023-02-01T00:33:27;99547.03;;;4.38;75.86
75699;BME280;64313;51.018;13.742;2023-02-01T00:36:00;99551.50;;;4.37;76.24
75699;BME280;64313;51.018;13.742;2023-02-01T00:38:27;99550.50;;;4.38;76.04
75699;BME280;64313;51.018;13.742;2023-02-01T00:40:53;99549.19;;;4.42;76.17
75699;BME280;64313;51.018;13.742;2023-02-01T00:43:18;99547.69;;;4.40;76.05
75699;BME280;64313;51.018;13.742;2023-02-01T00:45:45;99550.69;;;4.37;75.91
75699;BME280;64313;51.018;13.742;2023-02-01T00:48:10;99551.50;;;4.37;76.01
75699;BME280;64313;51.018;13.742;2023-02-01T00:50:41;99552.31;;;4.38;75.92
75699;BME280;64313;51.018;13.742;2023-02-01T00:53:06;99546.53;;;4.42;75.23
75699;BME280;64313;51.018;13.742;2023-02-01T00:55:31;99559.94;;;4.41;75.62
75699;BME280;64313;51.018;13.742;2023-02-01T00:57:57;99553.00;;;4.40;75.62
75699;BME280;64313;51.018;13.742;2023-02-01T01:00:22;99556.63;;;4.39;75.46
75699;BME280;64313;51.018;13.742;2023-02-01T01:02:48;99556.63;;;4.39;75.21
75699;BME280;64313;51.018;13.742;2023-02-01T01:05:13;99563.72;;;4.38;74.98
75699;BME280;64313;51.018;13.742;2023-02-01T01:07:38;99554.97;;;4.38;74.94
75699;BME280;64313;51.018;13.742;2023-02-01T01:10:04;99562.41;;;4.42;74.59
75699;BME280;64313;51.018;13.742;2023-02-01T01:12:31;99567.72;;;4.42;74.72
75699;BME280;64313;51.018;13.742;2023-02-01T01:14:56;99566.06;;;4.41;74.36
75699;BME280;64313;51.018;13.742;2023-02-01T01:17:21;99566.22;;;4.40;74.91
75699;BME280;64313;51.018;13.742;2023-02-01T01:19:47;99561.59;;;4.42;74.72
75699;BME280;64313;51.018;13.742;2023-02-01T01:22:12;99552.00;;;4.41;74.47
75699;BME280;64313;51.018;13.742;2023-02-01T01:24:37;99554.63;;;4.41;74.71
75699;BME280;64313;51.018;13.742;2023-02-01T01:27:03;99562.09;;;4.45;73.98
75699;BME280;64313;51.018;13.742;2023-02-01T01:29:28;99546.88;;;4.39;74.11
75699;BME280;64313;51.018;13.742;2023-02-01T01:31:53;99550.50;;;4.38;74.01
75699;BME280;64313;51.018;13.742;2023-02-01T01:34:19;99554.16;;;4.37;73.93
75699;BME280;64313;51.018;13.742;2023-02-01T01:36:44;99547.84;;;4.38;73.64
75699;BME280;64313;51.018;13.742;2023-02-01T01:39:09;99553.81;;;4.40;73.39
75699;BME280;64313;51.018;13.742;2023-02-01T01:41:35;99548.84;;;4.37;73.62
75699;BME280;64313;51.018;13.742;2023-02-01T01:47:14;99552.50;;;4.36;73.15
75699;BME280;64313;51.018;13.742;2023-02-01T01:49:40;99546.53;;;4.34;73.51
75699;BME280;64313;51.018;13.742;2023-02-01T01:52:06;99546.69;;;4.32;73.37
75699;BME280;64313;51.018;13.742;2023-02-01T01:54:37;99536.94;;;4.33;73.49
75699;BME280;64313;51.018;13.742;2023-02-01T01:57:11;99537.78;;;4.33;73.44
75699;BME280;64313;51.018;13.742;2023-02-01T01:59:41;99537.94;;;4.32;73.48
75699;BME280;64313;51.018;13.742;2023-02-01T02:02:08;99539.56;;;4.33;73.02
75699;BME280;64313;51.018;13.742;2023-02-01T02:04:35;99531.81;;;4.31;72.85
75699;BME280;64313;51.018;13.742;2023-02-01T02:07:04;99520.22;;;4.32;72.89
75699;BME280;64313;51.018;13.742;2023-02-01T02:09:30;99527.19;;;4.33;72.54
75699;BME280;64313;51.018;13.742;2023-02-01T02:11:56;99533.31;;;4.34;72.66
75699;BME280;64313;51.018;13.742;2023-02-01T02:14:23;99517.44;;;4.34;72.62
75699;BME280;64313;51.018;13.742;2023-02-01T02:17:10;99524.69;;;4.32;72.71
75699;BME280;64313;51.018;13.742;2023-02-01T02:19:56;99526.88;;;4.37;72.17
75699;BME280;64313;51.018;13.742;2023-02-01T02:33:56;99509.50;;;4.34;71.64
75699;BME280;64313;51.018;13.742;2023-02-01T02:39:28;99507.19;;;4.31;71.44
75699;BME280;64313;51.018;13.742;2023-02-01T02:42:02;99511.81;;;4.29;71.68
75699;BME280;64313;51.018;13.742;2023-02-01T02:45:04;99506.03;;;4.33;71.66
75699;BME280;64313;51.018;13.742;2023-02-01T02:48:23;99500.88;;;4.32;71.78
75699;BME280;64313;51.018;13.742;2023-02-01T02:54:04;99498.41;;;4.30;71.82
75699;BME280;64313;51.018;13.742;2023-02-01T02:56:49;99500.22;;;4.30;71.28
75699;BME280;64313;51.018;13.742;2023-02-01T02:59:36;99496.09;;;4.27;71.30
75699;BME280;64313;51.018;13.742;2023-02-01T03:02:22;99509.16;;;4.29;71.20
75699;BME280;64313;51.018;13.742;2023-02-01T03:05:07;99512.47;;;4.31;71.50
75699;BME280;64313;51.018;13.742;2023-02-01T03:07:57;99510.81;;;4.30;71.55
75699;BME280;64313;51.018;13.742;2023-02-01T03:12:53;99502.03;;;4.29;71.61
75699;BME280;64313;51.018;13.742;2023-02-01T03:15:29;99517.78;;;4.31;71.51
75699;BME280;64313;51.018;13.742;2023-02-01T03:17:57;99510.66;;;4.31;71.30
75699;BME280;64313;51.018;13.742;2023-02-01T03:20:27;99523.22;;;4.29;71.04
75699;BME280;64313;51.018;13.742;2023-02-01T03:22:58;99520.72;;;4.28;71.17
75699;BME280;64313;51.018;13.742;2023-02-01T03:25:31;99519.75;;;4.29;71.41
75699;BME280;64313;51.018;13.742;2023-02-01T03:28:04;99516.44;;;4.27;71.62
75699;BME280;64313;51.018;13.742;2023-02-01T03:30:34;99515.63;;;4.26;71.46
75699;BME280;64313;51.018;13.742;2023-02-01T03:33:04;99517.78;;;4.31;71.44
75699;BME280;64313;51.018;13.742;2023-02-01T03:35:45;99511.31;;;4.33;70.63
75699;BME280;64313;51.018;13.742;2023-02-01T03:38:19;99501.91;;;4.31;71.08
75699;BME280;64313;51.018;13.742;2023-02-01T03:41:24;99502.72;;;4.31;71.00
75699;BME280;64313;51.018;13.742;2023-02-01T03:43:54;99502.03;;;4.29;70.91
75699;BME280;64313;51.018;13.742;2023-02-01T03:46:26;99510.81;;;4.30;70.95
75699;BME280;64313;51.018;13.742;2023-02-01T03:49:00;99507.19;;;4.31;70.71
75699;BME280;64313;51.018;13.742;2023-02-01T03:51:28;99505.50;;;4.30;70.70
75699;BME280;64313;51.018;13.742;2023-02-01T03:53:55;99497.09;;;4.34;70.62
75699;BME280;64313;51.018;13.742;2023-02-01T03:56:22;99502.22;;;4.36;70.53
75699;BME280;64313;51.018;13.742;2023-02-01T03:58:50;99497.25;;;4.33;70.83
75699;BME280;64313;51.018;13.742;2023-02-01T04:01:28;99494.59;;;4.33;70.85
75699;BME280;64313;51.018;13.742;2023-02-01T04:03:54;99482.69;;;4.37;70.86
75699;BME280;64313;51.018;13.742;2023-02-01T04:06:20;99488.81;;;4.38;70.64
75699;BME280;64313;51.018;13.742;2023-02-01T04:08:46;99480.06;;;4.37;70.32
75699;BME280;64313;51.018;13.742;2023-02-01T04:11:12;99471.63;;;4.42;69.86
75699;BME280;64313;51.018;13.742;2023-02-01T04:13:37;99478.56;;;4.43;69.49
75699;BME280;64313;51.018;13.742;2023-02-01T04:16:03;99474.44;;;4.40;70.36
75699;BME280;64313;51.018;13.742;2023-02-01T04:18:28;99473.44;;;4.41;70.40
75699;BME280;64313;51.018;13.742;2023-02-01T04:20:53;99473.44;;;4.41;70.02
75699;BME280;64313;51.018;13.742;2023-02-01T04:23:18;99474.28;;;4.42;69.76
75699;BME280;64313;51.018;13.742;2023-02-01T04:25:44;99477.75;;;4.42;70.13
75699;BME280;64313;51.018;13.742;2023-02-01T04:28:09;99461.88;;;4.42;69.83
75699;BME280;64313;51.018;13.742;2023-02-01T04:30:34;99466.00;;;4.45;69.60
75699;BME280;64313;51.018;13.742;2023-02-01T04:33:00;99451.75;;;4.46;69.32
75699;BME280;64313;51.018;13.742;2023-02-01T04:35:25;99458.88;;;4.45;69.04
75699;BME280;64313;51.018;13.742;2023-02-01T04:37:50;99467.00;;;4.44;69.28
75699;BME280;64313;51.018;13.742;2023-02-01T04:40:16;99465.19;;;4.44;69.79
75699;BME280;64313;51.018;13.742;2023-02-01T04:42:41;99454.59;;;4.44;69.47
75699;BME280;64313;51.018;13.742;2023-02-01T04:45:07;99457.38;;;4.43;69.45
75699;BME280;64313;51.018;13.742;2023-02-01T04:47:34;99447.63;;;4.43;69.88
75699;BME280;64313;51.018;13.742;2023-02-01T04:49:59;99442.34;;;4.43;69.48
75699;BME280;64313;51.018;13.742;2023-02-01T04:52:24;99447.63;;;4.43;69.16
75699;BME280;64313;51.018;13.742;2023-02-01T04:54:49;99443.19;;;4.44;69.63
75699;BME280;64313;51.018;13.742;2023-02-01T04:57:15;99443.00;;;4.45;69.05
75699;BME280;64313;51.018;13.742;2023-02-01T04:59:40;99431.44;;;4.46;69.13
75699;BME280;64313;51.018;13.742;2023-02-01T05:02:05;99431.44;;;4.46;68.59
75699;BME280;64313;51.018;13.742;2023-02-01T05:04:31;99423.81;;;4.43;68.74
75699;BME280;64313;51.018;13.742;2023-02-01T05:06:56;99423.50;;;4.46;69.09
75699;BME280;64313;51.018;13.742;2023-02-01T05:09:21;99397.84;;;4.47;68.93
75699;BME280;64313;51.018;13.742;2023-02-01T05:11:47;99408.78;;;4.44;69.02
75699;BME280;64313;51.018;13.742;2023-02-01T05:14:31;99399.19;;;4.43;69.18
75699;BME280;64313;51.018;13.742;2023-02-01T05:16:56;99395.72;;;4.42;69.04
75699;BME280;64313;51.018;13.742;2023-02-01T05:19:21;99395.56;;;4.44;68.71
75699;BME280;64313;51.018;13.742;2023-02-01T05:21:47;99390.25;;;4.44;69.05
75699;BME280;64313;51.018;13.742;2023-02-01T05:24:12;99389.41;;;4.43;68.70
75699;BME280;64313;51.018;13.742;2023-02-01T05:26:47;99395.38;;;4.45;68.35
75699;BME280;64313;51.018;13.742;2023-02-01T05:29:13;99388.75;;;4.49;68.23
75699;BME280;64313;51.018;13.742;2023-02-01T05:31:39;99379.00;;;4.50;68.07
75699;BME280;64313;51.018;13.742;2023-02-01T05:34:05;99377.50;;;4.47;68.08
75699;BME280;64313;51.018;13.742;2023-02-01T05:36:30;99377.50;;;4.47;68.54
75699;BME280;64313;51.018;13.742;2023-02-01T05:38:56;99372.56;;;4.44;68.26
75699;BME280;64313;51.018;13.742;2023-02-01T05:41:21;99376.84;;;4.45;68.40
75699;BME280;64313;51.018;13.742;2023-02-01T05:43:46;99382.81;;;4.47;68.29
75699;BME280;64313;51.018;13.742;2023-02-01T05:46:12;99384.78;;;4.45;67.96
75699;BME280;64313;51.018;13.742;2023-02-01T05:48:41;99381.31;;;4.45;68.40
75699;BME280;64313;51.018;13.742;2023-02-01T05:51:07;99387.63;;;4.44;68.40
75699;BME280;64313;51.018;13.742;2023-02-01T05:53:32;99387.44;;;4.45;68.31
75699;BME280;64313;51.018;13.742;2023-02-01T05:55:58;99388.25;;;4.46;68.69
75699;BME280;64313;51.018;13.742;2023-02-01T05:58:23;99386.44;;;4.46;68.30
75699;BME280;64313;51.018;13.742;2023-02-01T06:00:49;99386.25;;;4.48;68.43
75699;BME280;64313;51.018;13.742;2023-02-01T06:03:14;99379.00;;;4.50;67.88
75699;BME280;64313;51.018;13.742;2023-02-01T06:05:39;99380.47;;;4.52;68.14
75699;BME280;64313;51.018;13.742;2023-02-01T06:08:05;99377.00;;;4.52;68.46
75699;BME280;64313;51.018;13.742;2023-02-01T06:10:33;99382.47;;;4.50;68.22
75699;BME280;64313;51.018;13.742;2023-02-01T06:12:58;99383.47;;;4.49;68.77
75699;BME280;64313;51.018;13.742;2023-02-01T06:15:23;99381.97;;;4.47;68.29
75699;BME280;64313;51.018;13.742;2023-02-01T06:17:48;99385.44;;;4.47;68.52
75699;BME280;64313;51.018;13.742;2023-02-01T06:20:15;99377.50;;;4.47;68.41
75699;BME280;64313;51.018;13.742;2023-02-01T06:22:40;99380.16;;;4.47;68.64
75699;BME280;64313;51.018;13.742;2023-02-01T06:25:08;99378.31;;;4.48;68.16
75699;BME280;64313;51.018;13.742;2023-02-01T06:27:34;99376.50;;;4.48;68.34
75699;BME280;64313;51.018;13.742;2023-02-01T06:29:59;99384.63;;;4.47;68.45
75699;BME280;64313;51.018;13.742;2023-02-01T06:32:25;99382.13;;;4.45;67.74
75699;BME280;64313;51.018;13.742;2023-02-01T06:34:50;99383.13;;;4.44;68.73
75699;BME280;64313;51.018;13.742;2023-02-01T06:37:18;99384.13;;;4.43;68.76
75699;BME280;64313;51.018;13.742;2023-02-01T06:39:43;99383.81;;;4.46;68.80
75699;BME280;64313;51.018;13.742;2023-02-01T06:42:09;99387.44;;;4.45;68.76
75699;BME280;64313;51.018;13.742;2023-02-01T06:44:34;99377.19;;;4.42;68.74
75699;BME280;64313;51.018;13.742;2023-02-01T06:46:59;99382.47;;;4.42;69.32
75699;BME280;64313;51.018;13.742;2023-02-01T06:49:25;99380.50;;;4.44;69.21
75699;BME280;64313;51.018;13.742;2023-02-01T06:51:50;99371.41;;;4.47;69.63
75699;BME280;64313;51.018;13.742;2023-02-01T06:54:15;99366.25;;;4.45;69.43
75699;BME280;64313;51.018;13.742;2023-02-01T06:56:41;99362.94;;;4.43;70.00
75699;BME280;64313;51.018;13.742;2023-02-01T06:59:07;99363.78;;;4.44;70.10
75699;BME280;64313;51.018;13.742;2023-02-01T07:01:32;99357.50;;;4.45;69.88
75699;BME280;64313;51.018;13.742;2023-02-01T07:03:58;99355.84;;;4.44;70.21
75699;BME280;64313;51.018;13.742;2023-02-01T07:06:23;99366.09;;;4.47;70.21
75699;BME280;64313;51.018;13.742;2023-02-01T07:08:48;99360.16;;;4.45;70.43
75699;BME280;64313;51.018;13.742;2023-02-01T07:11:15;99359.31;;;4.44;70.60
75699;BME280;64313;51.018;13.742;2023-02-01T07:13:41;99351.38;;;4.44;71.54
75699;BME280;64313;51.018;13.742;2023-02-01T07:16:10;99363.28;;;4.40;71.60
75699;BME280;64313;51.018;13.742;2023-02-01T07:18:35;99356.84;;;4.43;71.65
75699;BME280;64313;51.018;13.742;2023-02-01T07:21:01;99351.19;;;4.46;72.11
75699;BME280;64313;51.018;13.742;2023-02-01T07:23:26;99350.72;;;4.42;72.40
75699;BME280;64313;51.018;13.742;2023-02-01T07:25:53;99357.34;;;4.38;73.23
75699;BME280;64313;51.018;13.742;2023-02-01T07:28:18;99355.38;;;4.32;73.47
75699;BME280;64313;51.018;13.742;2023-02-01T07:30:44;99352.56;;;4.33;73.70
75699;BME280;64313;51.018;13.742;2023-02-01T07:33:15;99342.31;;;4.30;74.69
75699;BME280;64313;51.018;13.742;2023-02-01T07:35:41;99335.88;;;4.25;75.02
75699;BME280;64313;51.018;13.742;2023-02-01T07:38:06;99341.66;;;4.20;74.83
75699;BME280;64313;51.018;13.742;2023-02-01T07:40:31;99335.38;;;4.13;76.43
75699;BME280;64313;51.018;13.742;2023-02-01T07:42:57;99339.03;;;4.12;76.09
75699;BME280;64313;51.018;13.742;2023-02-01T07:45:22;99331.09;;;4.12;76.17
75699;BME280;64313;51.018;13.742;2023-02-01T07:47:48;99326.16;;;4.09;76.94
75699;BME280;64313;51.018;13.742;2023-02-01T07:50:14;99331.59;;;4.07;76.25
75699;BME280;64313;51.018;13.742;2023-02-01T07:52:40;99329.13;;;4.06;76.79
75699;BME280;64313;51.018;13.742;2023-02-01T07:55:06;99333.09;;;4.02;76.67
75699;BME280;64313;51.018;13.742;2023-02-01T07:57:32;99316.75;;;3.98;76.96
75699;BME280;64313;51.018;13.742;2023-02-01T07:59:57;99324.50;;;4.00;75.97
75699;BME280;64313;51.018;13.742;2023-02-01T08:02:41;99318.22;;;4.01;76.09
75699;BME280;64313;51.018;13.742;2023-02-01T08:05:07;99323.53;;;4.01;76.20
75699;BME280;64313;51.018;13.742;2023-02-01T08:07:32;99316.22;;;4.03;76.03
75699;BME280;64313;51.018;13.742;2023-02-01T08:09:57;99315.25;;;4.04;75.87
75699;BME280;64313;51.018;13.742;2023-02-01T08:12:23;99315.56;;;4.09;76.00
75699;BME280;64313;51.018;13.742;2023-02-01T08:14:48;99308.28;;;4.11;75.47
75699;BME280;64313;51.018;13.742;2023-02-01T08:17:13;99303.63;;;4.13;75.53
75699;BME280;64313;51.018;13.742;2023-02-01T08:19:38;99310.09;;;4.10;75.97
75699;BME280;64313;51.018;13.742;2023-02-01T08:22:04;99310.44;;;4.07;75.64
75699;BME280;64313;51.018;13.742;2023-02-01T08:24:34;99299.03;;;4.07;75.75
75699;BME280;64313;51.018;13.742;2023-02-01T08:27:01;99311.59;;;4.05;76.04
75699;BME280;64313;51.018;13.742;2023-02-01T08:29:27;99309.94;;;4.04;76.10
75699;BME280;64313;51.018;13.742;2023-02-01T08:31:53;99305.47;;;4.04;76.43
75699;BME280;64313;51.018;13.742;2023-02-01T08:34:19;99287.78;;;4.05;76.46
75699;BME280;64313;51.018;13.742;2023-02-01T08:36:44;99280.69;;;4.05;76.49
75699;BME280;64313;51.018;13.742;2023-02-01T08:39:10;99298.56;;;4.03;75.91
75699;BME280;64313;51.018;13.742;2023-02-01T08:41:36;99285.97;;;4.05;75.55
75699;BME280;64313;51.018;13.742;2023-02-01T08:44:01;99279.50;;;4.08;75.49
75699;BME280;64313;51.018;13.742;2023-02-01T08:46:27;99268.63;;;4.11;75.12
75699;BME280;64313;51.018;13.742;2023-02-01T08:48:53;99257.03;;;4.12;74.19
75699;BME280;64313;51.018;13.742;2023-02-01T08:51:21;99276.69;;;4.18;74.00
75699;BME280;64313;51.018;13.742;2023-02-01T08:53:47;99270.56;;;4.25;73.09
75699;BME280;64313;51.018;13.742;2023-02-01T08:56:15;99276.69;;;4.26;73.46
75699;BME280;64313;51.018;13.742;2023-02-01T08:58:41;99276.81;;;4.32;72.47
75699;BME280;64313;51.018;13.742;2023-02-01T09:01:11;99276.66;;;4.34;72.25
75699;BME280;64313;51.018;13.742;2023-02-01T09:03:37;99270.22;;;4.37;72.17
75699;BME280;64313;51.018;13.742;2023-02-01T09:06:05;99279.28;;;4.42;72.25
75699;BME280;64313;51.018;13.742;2023-02-01T09:08:31;99267.53;;;4.45;71.75
75699;BME280;64313;51.018;13.742;2023-02-01T09:11:01;99267.69;;;4.43;72.03
75699;BME280;64313;51.018;13.742;2023-02-01T09:13:27;99267.03;;;4.49;71.93
75699;BME280;64313;51.018;13.742;2023-02-01T09:15:52;99260.56;;;4.52;72.01
75699;BME280;64313;51.018;13.742;2023-02-01T09:18:17;99268.31;;;4.53;71.79
75699;BME280;64313;51.018;13.742;2023-02-01T09:20:43;99269.97;;;4.54;71.99
75699;BME280;64313;51.018;13.742;2023-02-01T09:23:08;99273.59;;;4.53;72.17
75699;BME280;64313;51.018;13.742;2023-02-01T09:25:33;99287.84;;;4.52;72.29
75699;BME280;64313;51.018;13.742;2023-02-01T09:27:59;99281.53;;;4.53;72.76
75699;BME280;64313;51.018;13.742;2023-02-01T09:30:24;99289.47;;;4.53;73.20
75699;BME280;64313;51.018;13.742;2023-02-01T09:32:49;99300.41;;;4.50;73.49
75699;BME280;64313;51.018;13.742;2023-02-01T09:35:15;99278.44;;;4.50;74.22
75699;BME280;64313;51.018;13.742;2023-02-01T09:37:40;99280.09;;;4.43;74.77
75699;BME280;64313;51.018;13.742;2023-02-01T09:40:06;99268.84;;;4.41;76.04
75699;BME280;64313;51.018;13.742;2023-02-01T09:45:44;99292.50;;;4.42;75.77
75699;BME280;64313;51.018;13.742;2023-02-01T09:48:16;99287.06;;;4.36;76.63
75699;BME280;64313;51.018;13.742;2023-02-01T09:50:47;99305.44;;;4.29;76.97
75699;BME280;64313;51.018;13.742;2023-02-01T09:53:34;99299.50;;;4.27;77.24
75699;BME280;64313;51.018;13.742;2023-02-01T09:56:05;99312.75;;;4.19;78.86
75699;BME280;64313;51.018;13.742;2023-02-01T09:58:36;99312.94;;;4.09;78.83
75699;BME280;64313;51.018;13.742;2023-02-01T10:01:04;99313.56;;;4.03;79.21
75699;BME280;64313;51.018;13.742;2023-02-01T10:03:33;99316.56;;;4.00;79.51
75699;BME280;64313;51.018;13.742;2023-02-01T10:06:26;99320.19;;;3.90;79.98
75699;BME280;64313;51.018;13.742;2023-02-01T10:12:04;99327.66;;;3.79;80.10
75699;BME280;64313;51.018;13.742;2023-02-01T10:17:13;99335.41;;;3.72;80.65
75699;BME280;64313;51.018;13.742;2023-02-01T10:22:33;99335.06;;;3.59;80.99
75699;BME280;64313;51.018;13.742;2023-02-01T10:25:13;99339.69;;;3.65;80.37
75699;BME280;64313;51.018;13.742;2023-02-01T10:27:39;99337.72;;;3.59;81.15
75699;BME280;64313;51.018;13.742;2023-02-01T10:30:24;99338.53;;;3.59;80.96
75699;BME280;64313;51.018;13.742;2023-02-01T10:32:55;99338.69;;;3.58;81.07
75699;BME280;64313;51.018;13.742;2023-02-01T10:35:28;99345.13;;;3.55;81.48
75699;BME280;64313;51.018;13.742;2023-02-01T10:37:55;99345.44;;;3.52;81.84
75699;BME280;64313;51.018;13.742;2023-02-01T10:40:23;99347.75;;;3.55;81.66
75699;BME280;64313;51.018;13.742;2023-02-01T10:42:51;99344.97;;;3.49;81.96
75699;BME280;64313;51.018;13.742;2023-02-01T10:45:21;99341.50;;;3.56;81.81
75699;BME280;64313;51.018;13.742;2023-02-01T10:47:49;99344.81;;;3.58;81.58
75699;BME280;64313;51.018;13.742;2023-02-01T10:50:35;99341.16;;;3.51;83.20
75699;BME280;64313;51.018;13.742;2023-02-01T10:53:29;99340.50;;;3.57;82.50
75699;BME280;64313;51.018;13.742;2023-02-01T10:55:56;99335.72;;;3.61;82.29
75699;BME280;64313;51.018;13.742;2023-02-01T10:58:30;99346.78;;;3.64;82.59
75699;BME280;64313;51.018;13.742;2023-02-01T11:01:06;99354.22;;;3.69;81.88
75699;BME280;64313;51.018;13.742;2023-02-01T11:06:40;99356.38;;;3.82;81.42
75699;BME280;64313;51.018;13.742;2023-02-01T11:11:33;99361.38;;;3.93;80.97
75699;BME280;64313;51.018;13.742;2023-02-01T11:14:01;99352.09;;;3.97;80.95
75699;BME280;64313;51.018;13.742;2023-02-01T11:16:37;99369.97;;;4.03;80.47
75699;BME280;64313;51.018;13.742;2023-02-01T11:19:03;99370.28;;;4.08;79.93
75699;BME280;64313;51.018;13.742;2023-02-01T11:21:29;99368.78;;;4.14;80.45
75699;BME280;64313;51.018;13.742;2023-02-01T11:23:55;99354.56;;;4.15;80.20
75699;BME280;64313;51.018;13.742;2023-02-01T11:26:26;99361.66;;;4.23;79.40
75699;BME280;64313;51.018;13.742;2023-02-01T11:29:13;99358.34;;;4.21;79.42
75699;BME280;64313;51.018;13.742;2023-02-01T11:31:42;99366.13;;;4.22;78.39
75699;BME280;64313;51.018;13.742;2023-02-01T11:34:16;99338.19;;;4.28;78.60
75699;BME280;64313;51.018;13.742;2023-02-01T11:36:45;99345.94;;;4.29;78.62
75699;BME280;64313;51.018;13.742;2023-02-01T11:41:54;99343.47;;;4.36;78.27
75699;BME280;64313;51.018;13.742;2023-02-01T11:44:39;99333.38;;;4.40;78.25
75699;BME280;64313;51.018;13.742;2023-02-01T11:47:30;99325.09;;;4.43;78.02
75699;BME280;64313;51.018;13.742;2023-02-01T11:50:12;99333.03;;;4.43;78.06
75699;BME280;64313;51.018;13.742;2023-02-01T12:03:53;99311.16;;;4.57;78.08
75699;BME280;64313;51.018;13.742;2023-02-01T12:06:30;99307.19;;;4.61;77.71
75699;BME280;64313;51.018;13.742;2023-02-01T12:11:58;99311.47;;;4.62;77.49
75699;BME280;64313;51.018;13.742;2023-02-01T12:28:18;99296.38;;;4.71;75.62
75699;BME280;64313;51.018;13.742;2023-02-01T12:31:02;99294.72;;;4.70;74.93
75699;BME280;64313;51.018;13.742;2023-02-01T12:36:22;99297.03;;;4.73;74.96
75699;BME280;64313;51.018;13.742;2023-02-01T12:44:28;99300.16;;;4.76;74.83
75699;BME280;64313;51.018;13.742;2023-02-01T12:50:47;99302.63;;;4.78;74.92
75699;BME280;64313;51.018;13.742;2023-02-01T12:53:22;99297.19;;;4.80;74.76
75699;BME280;64313;51.018;13.742;2023-02-01T12:55:53;99297.84;;;4.82;75.16
75699;BME280;64313;51.018;13.742;2023-02-01T13:01:06;99288.38;;;4.87;74.31
75699;BME280;64313;51.018;13.742;2023-02-01T13:03:44;99294.31;;;4.89;74.70
75699;BME280;64313;51.018;13.742;2023-02-01T13:06:27;99288.66;;;4.92;74.47
75699;BME280;64313;51.018;13.742;2023-02-01T13:09:15;99285.00;;;4.93;74.25
75699;BME280;64313;51.018;13.742;2023-02-01T13:11:45;99283.22;;;4.94;74.29
75699;BME280;64313;51.018;13.742;2023-02-01T13:17:10;99286.31;;;4.97;73.52
75699;BME280;64313;51.018;13.742;2023-02-01T13:19:48;99282.84;;;4.97;73.87
75699;BME280;64313;51.018;13.742;2023-02-01T13:22:20;99286.16;;;4.99;73.69
75699;BME280;64313;51.018;13.742;2023-02-01T13:24:58;99285.63;;;5.04;73.68
75699;BME280;64313;51.018;13.742;2023-02-01T13:27:29;99283.63;;;5.06;73.62
75699;BME280;64313;51.018;13.742;2023-02-01T13:30:18;99275.31;;;5.09;73.33
75699;BME280;64313;51.018;13.742;2023-02-01T13:32:55;99274.34;;;5.10;73.16
75699;BME280;64313;51.018;13.742;2023-02-01T13:38:15;99272.81;;;5.15;72.81
75699;BME280;64313;51.018;13.742;2023-02-01T13:43:30;99262.69;;;5.19;72.38
75699;BME280;64313;51.018;13.742;2023-02-01T13:46:01;99257.38;;;5.19;72.54
75699;BME280;64313;51.018;13.742;2023-02-01T13:48:33;99250.09;;;5.21;71.92
75699;BME280;64313;51.018;13.742;2023-02-01T13:51:01;99251.75;;;5.22;71.94
75699;BME280;64313;51.018;13.742;2023-02-01T13:53:33;99242.78;;;5.23;71.53
75699;BME280;64313;51.018;13.742;2023-02-01T13:56:04;99253.38;;;5.23;71.21
75699;BME280;64313;51.018;13.742;2023-02-01T13:58:36;99248.09;;;5.23;71.35
75699;BME280;64313;51.018;13.742;2023-02-01T14:11:35;99250.66;;;5.31;70.03
75699;BME280;64313;51.018;13.742;2023-02-01T14:19:36;99251.16;;;5.35;69.58
75699;BME280;64313;51.018;13.742;2023-02-01T14:24:39;99241.38;;;5.35;69.06
75699;BME280;64313;51.018;13.742;2023-02-01T14:27:16;99239.38;;;5.37;69.32
75699;BME280;64313;51.018;13.742;2023-02-01T14:29:50;99236.91;;;5.36;68.51
75699;BME280;64313;51.018;13.742;2023-02-01T14:32:24;99227.13;;;5.36;68.36
75699;BME280;64313;51.018;13.742;2023-02-01T14:34:54;99234.06;;;5.37;68.53
75699;BME280;64313;51.018;13.742;2023-02-01T14:42:50;99216.50;;;5.36;68.84
75699;BME280;64313;51.018;13.742;2023-02-01T14:47:44;99223.47;;;5.37;68.18
75699;BME280;64313;51.018;13.742;2023-02-01T14:55:42;99216.22;;;5.31;68.79
75699;BME280;64313;51.018;13.742;2023-02-01T15:00:53;99222.81;;;5.35;68.20
75699;BME280;64313;51.018;13.742;2023-02-01T15:05:58;99210.59;;;5.34;68.29
75699;BME280;64313;51.018;13.742;2023-02-01T15:08:31;99234.44;;;5.34;68.00
75699;BME280;64313;51.018;13.742;2023-02-01T15:11:00;99224.00;;;5.33;67.54
75699;BME280;64313;51.018;13.742;2023-02-01T15:13:27;99213.56;;;5.31;67.50
75699;BME280;64313;51.018;13.742;2023-02-01T15:16:04;99220.53;;;5.32;67.09
75699;BME280;64313;51.018;13.742;2023-02-01T15:18:31;99215.41;;;5.31;67.96
75699;BME280;64313;51.018;13.742;2023-02-01T15:20:59;99208.28;;;5.31;68.75
75699;BME280;64313;51.018;13.742;2023-02-01T15:23:25;99198.84;;;5.29;68.59